createdAt,value
2022-08-07T00:01:44.685Z,10.94
2022-08-07T00:06:33.019Z,10.89
2022-08-07T00:11:47.849Z,10.83
2022-08-07T00:16:58.415Z,10.73
2022-08-07T00:22:03.328Z,10.63
2022-08-07T00:27:07.721Z,10.48
2022-08-07T00:32:13.804Z,10.41
2022-08-07T00:37:18.497Z,10.42
2022-08-07T00:42:29.222Z,10.44
2022-08-07T00:48:08.963Z,10.39
2022-08-07T00:52:56.153Z,10.38
2022-08-07T00:57:59.198Z,10.33
2022-08-07T01:03:02.636Z,10.27
2022-08-07T01:08:09.103Z,10.20
2022-08-07T01:13:11.915Z,10.13
2022-08-07T01:18:19.217Z,10.06
2022-08-07T01:23:35.399Z,9.98
2022-08-07T01:28:45.830Z,9.91
2022-08-07T01:33:55.927Z,9.95
2022-08-07T01:39:01.882Z,9.91
2022-08-07T01:44:13.342Z,9.89
2022-08-07T01:49:15.936Z,9.83
2022-08-07T01:54:33.255Z,9.76
2022-08-07T01:59:45.247Z,9.74
2022-08-07T02:04:56.087Z,9.70
2022-08-07T02:10:02.699Z,9.65
2022-08-07T02:15:08.056Z,9.64
2022-08-07T02:20:17.123Z,9.57
2022-08-07T02:26:10.275Z,9.51
2022-08-07T02:30:49.480Z,9.50
2022-08-07T02:36:30.618Z,9.47
2022-08-07T02:41:21.471Z,9.47
2022-08-07T02:46:27.330Z,9.44
2022-08-07T02:51:49.628Z,9.43
2022-08-07T02:56:57.544Z,9.37
2022-08-07T03:02:02.428Z,9.32
2022-08-07T03:07:07.291Z,9.28
2022-08-07T03:12:22.309Z,9.25
2022-08-07T03:17:52.963Z,9.25
2022-08-07T03:22:58.762Z,9.20
2022-08-07T03:28:09.602Z,9.13
2022-08-07T03:33:26.998Z,9.11
2022-08-07T03:38:36.210Z,9.07
2022-08-07T03:43:44.008Z,9.00
2022-08-07T03:49:03.103Z,9.00
2022-08-07T03:54:35.431Z,8.97
2022-08-07T03:59:32.227Z,8.90
2022-08-07T04:04:35.683Z,8.94
2022-08-07T04:09:45.324Z,8.96
2022-08-07T04:14:55.186Z,8.95
2022-08-07T04:19:58.901Z,8.97
2022-08-07T04:25:02.329Z,9.02
2022-08-07T04:30:11.883Z,9.07
2022-08-07T04:35:24.392Z,9.14
2022-08-07T04:40:29.982Z,9.26
2022-08-07T04:45:57.697Z,9.42
2022-08-07T04:51:09.342Z,9.57
2022-08-07T04:58:12.790Z,9.76
2022-08-07T05:01:50.522Z,10.16
2022-08-07T05:06:57.942Z,10.48
2022-08-07T05:12:06.736Z,10.65
2022-08-07T05:17:50.278Z,10.84
2022-08-07T05:22:39.942Z,11.01
2022-08-07T05:28:16.231Z,11.23
2022-08-07T05:33:10.421Z,11.50
2022-08-07T05:39:00.302Z,11.79
2022-08-07T05:43:50.237Z,12.07
2022-08-07T05:49:12.197Z,12.38
2022-08-07T05:54:30.971Z,12.67
2022-08-07T05:59:57.200Z,12.97
2022-08-07T06:05:06.871Z,13.29
2022-08-07T06:10:15.303Z,13.56
2022-08-07T06:15:20.802Z,13.87
2022-08-07T06:20:38.106Z,14.27
2022-08-07T06:25:54.336Z,17.04
2022-08-07T06:30:59.444Z,20.08
2022-08-07T06:36:06.611Z,21.62
2022-08-07T06:42:00.994Z,22.89
2022-08-07T06:46:44.150Z,23.55
2022-08-07T06:52:02.884Z,23.69
2022-08-07T06:57:10.509Z,24.19
2022-08-07T07:02:49.052Z,24.95
2022-08-07T07:07:59.403Z,25.16
2022-08-07T07:13:15.655Z,25.98
2022-08-07T07:18:47.512Z,26.34
2022-08-07T07:24:09.878Z,26.49
2022-08-07T07:29:38.413Z,26.84
2022-08-07T07:34:39.718Z,26.45
2022-08-07T07:39:52.463Z,27.18
2022-08-07T07:45:00.722Z,27.52
2022-08-07T07:50:34.218Z,27.68
2022-08-07T07:55:37.623Z,27.95
2022-08-07T08:00:54.073Z,26.89
2022-08-07T08:05:57.825Z,27.80
2022-08-07T08:11:02.488Z,28.30
2022-08-07T08:16:07.810Z,28.19
2022-08-07T08:21:55.540Z,29.01
2022-08-07T08:27:09.761Z,29.08
2022-08-07T08:32:18.981Z,28.15
2022-08-07T08:38:01.736Z,29.32
2022-08-07T08:42:59.434Z,28.23
2022-08-07T08:48:10.755Z,29.03
2022-08-07T08:53:20.363Z,29.15
2022-08-07T08:58:33.243Z,29.03
2022-08-07T09:03:47.444Z,29.06
2022-08-07T09:09:00.724Z,29.31
2022-08-07T09:14:13.199Z,29.00
2022-08-07T09:19:53.487Z,29.72
2022-08-07T09:25:00.517Z,29.18
2022-08-07T09:30:14.378Z,29.41
2022-08-07T09:36:03.282Z,30.05
2022-08-07T09:41:07.573Z,30.11
2022-08-07T09:47:25.644Z,30.23
2022-08-07T09:52:16.189Z,29.53
2022-08-07T09:57:53.280Z,29.42
2022-08-07T10:04:06.005Z,29.11
2022-08-07T10:09:10.934Z,29.40
2022-08-07T10:14:32.982Z,29.17
2022-08-07T10:19:51.260Z,29.79
2022-08-07T10:25:13.235Z,29.68
2022-08-07T10:30:18.882Z,28.90
2022-08-07T10:35:56.280Z,28.97
2022-08-07T10:41:02.057Z,29.75
2022-08-07T10:46:14.527Z,29.88
2022-08-07T10:51:39.054Z,29.40
2022-08-07T10:56:54.282Z,29.67
2022-08-07T11:02:12.149Z,29.55
2022-08-07T11:07:58.440Z,29.26
2022-08-07T11:13:02.266Z,29.21
2022-08-07T11:18:12.534Z,29.38
2022-08-07T11:23:30.900Z,29.28
2022-08-07T11:28:55.571Z,28.94
2022-08-07T11:34:06.247Z,29.90
2022-08-07T11:39:59.013Z,29.58
2022-08-07T11:44:59.620Z,29.31
2022-08-07T11:50:32.603Z,28.66
2022-08-07T11:56:09.395Z,27.99
2022-08-07T12:01:58.739Z,26.34
2022-08-07T12:07:18.998Z,25.67
2022-08-07T12:12:38.813Z,26.59
2022-08-07T12:17:59.412Z,25.28
2022-08-07T12:24:05.589Z,25.01
2022-08-07T12:28:53.950Z,27.12
2022-08-07T12:34:01.839Z,28.29
2022-08-07T12:39:09.504Z,28.86
2022-08-07T12:44:34.419Z,29.03
2022-08-07T12:49:50.984Z,28.98
2022-08-07T12:55:05.191Z,28.60
2022-08-07T13:00:16.437Z,28.05
2022-08-07T13:06:03.406Z,28.16
2022-08-07T13:11:28.528Z,27.98
2022-08-07T13:16:41.900Z,28.31
2022-08-07T13:21:57.508Z,28.38
2022-08-07T13:27:12.756Z,29.41
2022-08-07T13:32:32.207Z,29.09
2022-08-07T13:37:47.317Z,28.79
2022-08-07T13:43:06.287Z,27.83
2022-08-07T13:48:27.577Z,28.14
2022-08-07T13:53:59.749Z,28.38
2022-08-07T13:59:05.813Z,28.80
2022-08-07T14:04:21.443Z,28.20
2022-08-07T14:10:12.205Z,28.29
2022-08-07T14:14:54.559Z,28.35
2022-08-07T14:20:41.190Z,28.58
2022-08-07T14:25:39.642Z,28.64
2022-08-07T14:30:52.300Z,28.30
2022-08-07T14:35:59.989Z,27.76
2022-08-07T14:41:14.719Z,28.26
2022-08-07T14:46:30.567Z,28.36
2022-08-07T14:52:04.971Z,28.53
2022-08-07T14:57:02.253Z,28.59
2022-08-07T15:02:33.026Z,28.25
2022-08-07T15:07:51.173Z,28.50
2022-08-07T15:12:58.358Z,27.89
2022-08-07T15:18:05.202Z,27.57
2022-08-07T15:25:15.254Z,27.01
2022-08-07T15:34:14.955Z,26.49
2022-08-07T15:39:25.873Z,26.47
2022-08-07T15:44:31.095Z,26.88
2022-08-07T15:50:05.125Z,26.47
2022-08-07T15:55:03.515Z,26.82
2022-08-07T16:00:08.332Z,26.27
2022-08-07T16:05:15.562Z,26.35
2022-08-07T16:10:22.750Z,26.69
2022-08-07T16:15:55.731Z,26.77
2022-08-07T16:21:56.938Z,26.32
2022-08-07T16:26:59.505Z,26.38
2022-08-07T16:32:04.903Z,26.09
2022-08-07T16:38:05.527Z,25.78
2022-08-07T16:43:04.415Z,25.59
2022-08-07T16:49:10.544Z,25.73
2022-08-07T16:54:32.625Z,25.52
2022-08-07T16:59:51.194Z,25.79
2022-08-07T17:05:08.097Z,25.85
2022-08-07T17:10:38.358Z,25.53
2022-08-07T17:15:51.746Z,25.36
2022-08-07T17:20:55.858Z,25.21
2022-08-07T17:26:23.529Z,24.86
2022-08-07T17:32:03.177Z,24.32
2022-08-07T17:38:05.788Z,23.94
2022-08-07T17:42:59.685Z,23.70
2022-08-07T17:48:10.411Z,23.25
2022-08-07T17:54:01.768Z,22.67
2022-08-07T17:59:00.577Z,22.15
2022-08-07T18:04:16.646Z,21.73
2022-08-07T18:10:05.642Z,21.43
2022-08-07T18:14:50.578Z,21.18
2022-08-07T18:21:02.612Z,20.91
2022-08-07T18:25:39.237Z,20.71
2022-08-07T18:30:53.406Z,20.47
2022-08-07T18:36:10.273Z,20.28
2022-08-07T18:41:20.615Z,20.05
2022-08-07T18:46:28.534Z,19.75
2022-08-07T18:52:35.544Z,19.48
2022-08-07T18:57:30.306Z,19.29
2022-08-07T19:02:43.670Z,19.05
2022-08-07T19:07:58.674Z,18.79
2022-08-07T19:13:11.643Z,18.61
2022-08-07T19:18:34.145Z,18.45
2022-08-07T19:23:59.022Z,18.24
2022-08-07T19:30:55.313Z,18.00
2022-08-07T19:34:32.663Z,17.75
2022-08-07T19:39:57.414Z,17.59
2022-08-07T19:45:08.390Z,17.40
2022-08-07T19:50:41.355Z,17.28
2022-08-07T19:55:58.001Z,17.13
2022-08-07T20:00:59.818Z,16.98
2022-08-07T20:06:06.885Z,16.83
2022-08-07T20:11:34.051Z,16.66
2022-08-07T20:16:48.001Z,16.52
2022-08-07T20:21:58.776Z,16.36
2022-08-07T20:27:11.659Z,16.21
2022-08-07T20:32:23.251Z,16.14
2022-08-07T20:37:34.003Z,16.09
2022-08-07T20:42:47.420Z,16.05
2022-08-07T20:47:58.608Z,15.95
2022-08-07T20:53:01.631Z,15.91
2022-08-07T20:58:19.177Z,15.76
2022-08-07T21:03:25.990Z,15.63
2022-08-07T21:08:37.157Z,15.63
2022-08-07T21:14:20.146Z,15.50
2022-08-07T21:19:14.175Z,15.42
2022-08-07T21:24:27.342Z,15.35
2022-08-07T21:29:52.899Z,15.24
2022-08-07T21:34:59.099Z,15.15
2022-08-07T21:40:08.425Z,15.02
2022-08-07T21:46:08.602Z,14.91
2022-08-07T21:50:51.946Z,14.81
2022-08-07T21:56:03.908Z,14.71
2022-08-07T22:01:14.507Z,14.66
2022-08-07T22:06:30.272Z,14.56
2022-08-07T22:12:05.831Z,14.48
2022-08-07T22:17:02.121Z,14.48
2022-08-07T22:22:28.852Z,14.37
2022-08-07T22:28:08.002Z,14.23
2022-08-07T22:33:09.385Z,14.15
2022-08-07T22:38:20.569Z,14.11
2022-08-07T22:43:34.077Z,14.03
2022-08-07T22:49:01.314Z,13.98
2022-08-07T22:54:31.378Z,13.88
2022-08-07T22:59:50.903Z,13.80
2022-08-07T23:06:07.513Z,13.75
2022-08-07T23:10:41.244Z,13.61
2022-08-07T23:16:05.639Z,13.59
2022-08-07T23:21:30.452Z,13.51
2022-08-07T23:26:56.581Z,13.47
2022-08-07T23:34:23.082Z,13.39
2022-08-07T23:38:01.657Z,13.30
2022-08-07T23:43:23.322Z,13.25
2022-08-07T23:48:47.040Z,13.19
2022-08-07T23:53:57.079Z,13.09
2022-08-07T23:59:10.459Z,13.06
